createdAt,value
2023-08-22T00:01:55.317Z,25.34
2023-08-22T00:04:44.452Z,25.26
2023-08-22T00:07:32.209Z,25.34
2023-08-22T00:10:21.455Z,25.36
2023-08-22T00:13:09.228Z,25.37
2023-08-22T00:16:00.660Z,25.27
2023-08-22T00:18:48.454Z,25.26
2023-08-22T00:21:36.118Z,25.27
2023-08-22T00:24:24.876Z,25.22
2023-08-22T00:27:13.960Z,25.18
2023-08-22T00:30:01.792Z,25.24
2023-08-22T00:32:49.601Z,25.16
2023-08-22T00:35:37.355Z,24.97
2023-08-22T00:38:25.015Z,25.19
2023-08-22T00:41:12.624Z,25.02
2023-08-22T00:44:01.764Z,24.99
2023-08-22T00:46:49.921Z,25.16
2023-08-22T00:49:38.008Z,25.30
2023-08-22T00:52:26.010Z,24.87
2023-08-22T00:55:14.696Z,25.30
2023-08-22T00:58:03.156Z,25.37
2023-08-22T01:00:52.197Z,24.79
2023-08-22T01:03:40.323Z,25.23
2023-08-22T01:06:35.572Z,25.09
2023-08-22T01:09:29.752Z,24.63
2023-08-22T01:12:23.776Z,24.87
2023-08-22T01:15:22.340Z,24.81
2023-08-22T01:18:14.699Z,24.88
2023-08-22T01:21:06.798Z,24.79
2023-08-22T01:23:55.881Z,25.17
2023-08-22T01:26:43.600Z,25.27
2023-08-22T01:29:37.964Z,25.24
2023-08-22T01:32:30.148Z,25.02
2023-08-22T01:35:23.319Z,24.70
2023-08-22T01:38:13.241Z,24.55
2023-08-22T01:41:04.190Z,24.87
2023-08-22T01:43:52.377Z,24.43
2023-08-22T01:46:40.050Z,24.74
2023-08-22T01:49:28.026Z,24.91
2023-08-22T01:52:15.758Z,24.63
2023-08-22T01:55:04.891Z,24.49
2023-08-22T01:57:53.991Z,24.48
2023-08-22T02:00:41.636Z,24.83
2023-08-22T02:03:29.401Z,24.82
2023-08-22T02:06:17.131Z,24.42
2023-08-22T02:09:06.385Z,24.34
2023-08-22T02:11:54.411Z,23.90
2023-08-22T02:14:43.433Z,24.51
2023-08-22T02:17:31.206Z,24.23
2023-08-22T02:20:19.753Z,24.51
2023-08-22T02:23:08.722Z,24.31
2023-08-22T02:25:56.405Z,23.84
2023-08-22T02:28:44.116Z,24.46
2023-08-22T02:31:33.246Z,24.00
2023-08-22T02:34:21.001Z,24.03
2023-08-22T02:37:08.655Z,24.00
2023-08-22T02:39:57.147Z,24.09
2023-08-22T02:42:45.982Z,24.06
2023-08-22T02:45:33.691Z,24.09
2023-08-22T02:48:22.772Z,24.31
2023-08-22T02:51:10.543Z,24.33
2023-08-22T02:53:58.222Z,24.49
2023-08-22T02:56:45.923Z,24.05
2023-08-22T02:59:33.665Z,23.95
2023-08-22T03:02:21.391Z,24.10
2023-08-22T03:05:12.952Z,23.78
2023-08-22T03:08:00.957Z,23.62
2023-08-22T03:10:48.549Z,23.57
2023-08-22T03:13:37.080Z,23.62
2023-08-22T03:16:24.818Z,23.50
2023-08-22T03:19:12.498Z,23.40
2023-08-22T03:22:01.828Z,23.58
2023-08-22T03:24:49.521Z,23.36
2023-08-22T03:27:37.396Z,23.41
2023-08-22T03:30:25.473Z,23.47
2023-08-22T03:33:13.100Z,23.49
2023-08-22T03:36:01.494Z,23.47
2023-08-22T03:38:52.452Z,23.52
2023-08-22T03:41:40.279Z,23.44
2023-08-22T03:44:28.017Z,23.49
2023-08-22T03:47:15.661Z,23.76
2023-08-22T03:50:03.450Z,23.63
2023-08-22T03:52:51.092Z,23.52
2023-08-22T03:55:40.411Z,23.59
2023-08-22T03:58:28.120Z,23.76
2023-08-22T04:01:15.912Z,23.83
2023-08-22T04:04:03.626Z,23.75
2023-08-22T04:06:51.287Z,24.17
2023-08-22T04:09:39.145Z,23.93
2023-08-22T04:12:28.346Z,24.55
2023-08-22T04:15:16.783Z,24.04
2023-08-22T04:18:04.724Z,24.05
2023-08-22T04:20:52.381Z,24.57
2023-08-22T04:23:40.096Z,24.70
2023-08-22T04:26:27.806Z,24.41
2023-08-22T04:29:17.294Z,24.40
2023-08-22T04:32:05.084Z,24.46
2023-08-22T04:34:52.817Z,24.40
2023-08-22T04:37:40.888Z,24.62
2023-08-22T04:40:28.816Z,24.78
2023-08-22T04:43:16.473Z,24.92
2023-08-22T04:46:05.512Z,24.72
2023-08-22T04:48:53.243Z,24.74
2023-08-22T04:51:40.948Z,24.75
2023-08-22T04:54:28.749Z,24.92
2023-08-22T04:57:16.434Z,24.92
2023-08-22T05:00:05.198Z,24.94
2023-08-22T05:02:56.835Z,25.13
2023-08-22T05:05:44.935Z,25.33
2023-08-22T05:08:33.088Z,25.41
2023-08-22T05:11:20.814Z,25.55
2023-08-22T05:14:08.787Z,25.60
2023-08-22T05:16:56.578Z,25.58
2023-08-22T05:19:45.762Z,25.99
2023-08-22T05:22:33.429Z,26.16
2023-08-22T05:25:21.291Z,25.99
2023-08-22T05:28:09.587Z,26.04
2023-08-22T05:30:57.564Z,26.17
2023-08-22T05:33:45.533Z,26.50
2023-08-22T05:36:36.510Z,26.35
2023-08-22T05:39:24.286Z,26.63
2023-08-22T05:42:12.043Z,26.66
2023-08-22T05:44:59.731Z,26.84
2023-08-22T05:47:47.495Z,26.76
2023-08-22T05:50:35.622Z,26.91
2023-08-22T05:53:25.248Z,26.83
2023-08-22T05:56:13.136Z,26.77
2023-08-22T05:59:01.106Z,26.93
2023-08-22T06:01:48.901Z,27.07
2023-08-22T06:04:36.771Z,27.21
2023-08-22T06:07:24.647Z,27.24
2023-08-22T06:10:13.900Z,27.35
2023-08-22T06:13:01.716Z,27.48
2023-08-22T06:15:49.776Z,27.64
2023-08-22T06:18:37.479Z,27.62
2023-08-22T06:21:25.325Z,27.70
2023-08-22T06:24:13.135Z,27.94
2023-08-22T06:27:02.171Z,27.93
2023-08-22T06:29:49.945Z,27.95
2023-08-22T06:32:37.631Z,27.90
2023-08-22T06:35:26.324Z,28.08
2023-08-22T06:38:13.953Z,28.17
2023-08-22T06:41:06.280Z,28.30
2023-08-22T06:43:55.356Z,27.69
2023-08-22T06:46:43.104Z,28.31
2023-08-22T06:49:31.144Z,27.99
2023-08-22T06:52:19.590Z,28.49
2023-08-22T06:55:08.395Z,28.21
2023-08-22T06:57:56.189Z,28.72
2023-08-22T07:00:45.721Z,28.73
2023-08-22T07:03:33.571Z,28.91
2023-08-22T07:06:21.288Z,28.95
2023-08-22T07:09:09.563Z,28.87
2023-08-22T07:11:57.289Z,29.01
2023-08-22T07:14:45.219Z,29.10
2023-08-22T07:17:34.408Z,28.98
2023-08-22T07:20:22.089Z,29.18
2023-08-22T07:23:09.989Z,29.18
2023-08-22T07:25:57.681Z,29.19
2023-08-22T07:28:45.699Z,29.27
2023-08-22T07:31:33.499Z,29.25
2023-08-22T07:34:22.729Z,29.44
2023-08-22T07:37:10.499Z,29.39
2023-08-22T07:39:58.465Z,29.56
2023-08-22T07:42:46.168Z,29.50
2023-08-22T07:45:33.882Z,29.64
2023-08-22T07:48:21.613Z,29.76
2023-08-22T07:51:11.256Z,29.86
2023-08-22T07:53:59.441Z,30.01
2023-08-22T07:56:47.227Z,29.88
2023-08-22T07:59:35.207Z,30.10
2023-08-22T08:02:23.129Z,30.18
2023-08-22T08:05:11.833Z,30.42
2023-08-22T08:08:01.015Z,30.43
2023-08-22T08:10:48.889Z,30.38
2023-08-22T08:13:37.029Z,30.48
2023-08-22T08:16:39.221Z,30.56
2023-08-22T08:19:29.109Z,30.64
2023-08-22T08:22:17.157Z,30.69
2023-08-22T08:25:07.122Z,30.85
2023-08-22T08:27:56.213Z,30.93
2023-08-22T08:30:44.166Z,30.89
2023-08-22T08:33:32.036Z,31.07
2023-08-22T08:36:20.031Z,31.10
2023-08-22T08:39:07.859Z,31.14
2023-08-22T08:42:05.226Z,31.21
2023-08-22T08:44:53.570Z,31.42
2023-08-22T08:47:41.594Z,31.47
2023-08-22T08:50:29.891Z,31.67
2023-08-22T08:53:17.577Z,31.53
2023-08-22T08:56:11.192Z,31.25
2023-08-22T08:59:00.755Z,31.47
2023-08-22T09:01:51.269Z,31.52
2023-08-22T09:04:40.805Z,31.55
2023-08-22T09:07:28.667Z,31.43
2023-08-22T09:10:34.582Z,31.60
2023-08-22T09:13:38.957Z,31.70
2023-08-22T09:16:37.991Z,31.82
2023-08-22T09:19:25.844Z,31.82
2023-08-22T09:22:15.661Z,31.61
2023-08-22T09:25:05.377Z,31.65
2023-08-22T09:27:53.457Z,32.02
2023-08-22T09:30:48.751Z,32.00
2023-08-22T09:33:48.287Z,32.25
2023-08-22T09:36:36.085Z,32.11
2023-08-22T09:39:25.049Z,32.16
2023-08-22T09:42:12.976Z,31.68
2023-08-22T09:45:01.187Z,32.13
2023-08-22T09:47:53.505Z,32.28
2023-08-22T09:50:45.072Z,32.46
2023-08-22T09:53:33.908Z,32.56
2023-08-22T09:56:22.317Z,32.39
2023-08-22T09:59:10.404Z,32.69
2023-08-22T10:01:59.262Z,32.70
2023-08-22T10:04:47.662Z,32.61
2023-08-22T10:07:37.245Z,32.69
2023-08-22T10:10:25.808Z,32.60
2023-08-22T10:13:14.115Z,32.92
2023-08-22T10:16:02.209Z,32.98
2023-08-22T10:19:02.710Z,33.10
2023-08-22T10:21:50.801Z,33.21
2023-08-22T10:24:40.243Z,33.48
2023-08-22T10:27:30.137Z,33.34
2023-08-22T10:30:22.290Z,33.54
2023-08-22T10:33:24.668Z,33.19
2023-08-22T10:36:18.324Z,33.41
2023-08-22T10:39:07.082Z,33.27
2023-08-22T10:41:58.630Z,33.46
2023-08-22T10:44:50.353Z,33.66
2023-08-22T10:47:38.484Z,33.86
2023-08-22T10:50:34.703Z,33.64
2023-08-22T10:53:28.402Z,33.24
2023-08-22T10:56:25.927Z,33.91
2023-08-22T10:59:14.999Z,34.23
2023-08-22T11:02:02.871Z,34.00
2023-08-22T11:04:51.622Z,33.98
2023-08-22T11:07:41.130Z,33.75
2023-08-22T11:10:29.083Z,33.96
2023-08-22T11:13:16.702Z,33.78
2023-08-22T11:16:10.102Z,33.45
2023-08-22T11:18:58.876Z,33.36
2023-08-22T11:21:46.872Z,33.64
2023-08-22T11:24:34.904Z,33.43
2023-08-22T11:27:22.734Z,33.54
2023-08-22T11:30:12.309Z,33.57
2023-08-22T11:33:01.334Z,33.79
2023-08-22T11:35:51.982Z,33.86
2023-08-22T11:38:42.287Z,33.75
2023-08-22T11:41:30.650Z,33.84
2023-08-22T11:44:18.924Z,34.01
2023-08-22T11:47:13.954Z,34.28
2023-08-22T11:50:03.943Z,34.08
2023-08-22T11:52:54.797Z,33.74
2023-08-22T11:55:48.575Z,34.03
2023-08-22T11:58:44.597Z,33.96
2023-08-22T12:01:33.612Z,33.93
2023-08-22T12:04:21.613Z,33.73
2023-08-22T12:07:10.915Z,33.81
2023-08-22T12:09:59.946Z,33.87
2023-08-22T12:12:47.807Z,34.04
2023-08-22T12:15:35.947Z,34.16
2023-08-22T12:18:30.865Z,34.43
2023-08-22T12:21:19.640Z,34.02
2023-08-22T12:24:08.949Z,33.93
2023-08-22T12:26:56.623Z,33.75
2023-08-22T12:29:46.990Z,33.58
2023-08-22T12:32:35.373Z,33.41
2023-08-22T12:35:23.123Z,33.34
2023-08-22T12:38:11.590Z,33.46
2023-08-22T12:41:02.858Z,33.33
2023-08-22T12:43:50.625Z,33.44
2023-08-22T12:46:38.364Z,33.64
2023-08-22T12:49:26.155Z,33.89
2023-08-22T12:52:14.136Z,33.92
2023-08-22T12:55:03.718Z,34.07
2023-08-22T12:57:52.908Z,34.04
2023-08-22T13:00:40.590Z,33.92
2023-08-22T13:03:28.427Z,33.52
2023-08-22T13:06:16.192Z,33.58
2023-08-22T13:09:04.338Z,33.53
2023-08-22T13:11:52.329Z,33.54
2023-08-22T13:14:41.612Z,33.65
2023-08-22T13:17:29.995Z,33.48
2023-08-22T13:20:18.302Z,33.48
2023-08-22T13:23:08.039Z,33.62
2023-08-22T13:25:56.444Z,33.67
2023-08-22T13:28:44.125Z,33.67
2023-08-22T13:31:34.377Z,33.69
2023-08-22T13:34:22.245Z,33.55
2023-08-22T13:37:09.985Z,33.65
2023-08-22T13:39:57.624Z,33.62
2023-08-22T13:42:45.490Z,33.58
2023-08-22T13:45:33.505Z,33.54
2023-08-22T13:48:23.598Z,33.35
2023-08-22T13:51:11.564Z,33.36
2023-08-22T13:54:01.095Z,33.30
2023-08-22T13:56:48.947Z,33.37
2023-08-22T13:59:38.300Z,33.33
2023-08-22T14:02:25.942Z,33.35
2023-08-22T14:05:15.275Z,33.24
2023-08-22T14:08:02.929Z,33.25
2023-08-22T14:10:50.780Z,33.39
2023-08-22T14:13:38.472Z,33.45
2023-08-22T14:16:26.172Z,33.57
2023-08-22T14:19:14.493Z,33.33
2023-08-22T14:22:03.513Z,33.34
2023-08-22T14:24:51.383Z,33.32
2023-08-22T14:27:39.110Z,33.34
2023-08-22T14:30:27.112Z,33.24
2023-08-22T14:33:14.873Z,33.21
2023-08-22T14:36:06.757Z,33.32
2023-08-22T14:38:55.783Z,33.04
2023-08-22T14:41:43.611Z,33.09
2023-08-22T14:44:31.546Z,33.04
2023-08-22T14:47:19.304Z,32.84
2023-08-22T14:50:08.222Z,33.06
2023-08-22T14:52:55.932Z,32.99
2023-08-22T14:55:57.834Z,33.05
2023-08-22T14:58:47.558Z,33.07
2023-08-22T15:01:35.479Z,33.11
2023-08-22T15:04:26.259Z,33.10
2023-08-22T15:07:14.126Z,33.04
2023-08-22T15:10:01.802Z,33.14
2023-08-22T15:12:51.957Z,33.22
2023-08-22T15:15:39.731Z,33.21
2023-08-22T15:18:28.109Z,33.30
2023-08-22T15:24:04.137Z,33.17
2023-08-22T15:26:52.143Z,33.22
2023-08-22T15:29:41.291Z,33.20
2023-08-22T15:32:29.504Z,33.07
2023-08-22T15:35:17.227Z,33.11
2023-08-22T15:38:05.062Z,33.14
2023-08-22T15:40:53.535Z,33.07
2023-08-22T15:43:41.439Z,33.09
2023-08-22T15:46:30.792Z,33.06
2023-08-22T15:49:18.454Z,33.06
2023-08-22T15:52:07.142Z,33.03
2023-08-22T15:54:55.050Z,33.10
2023-08-22T15:57:42.792Z,33.09
2023-08-22T16:00:31.571Z,32.98
2023-08-22T16:03:20.819Z,33.08
2023-08-22T16:06:08.836Z,33.01
2023-08-22T16:08:56.498Z,32.96
2023-08-22T16:11:47.115Z,32.94
2023-08-22T16:14:34.836Z,32.94
2023-08-22T16:17:22.611Z,32.87
2023-08-22T16:20:12.949Z,32.84
2023-08-22T16:23:02.699Z,32.93
2023-08-22T16:25:50.562Z,32.76
2023-08-22T16:28:38.215Z,32.66
2023-08-22T16:31:28.452Z,32.49
2023-08-22T16:34:16.502Z,32.40
2023-08-22T16:37:05.949Z,32.40
2023-08-22T16:39:53.881Z,32.39
2023-08-22T16:42:41.637Z,32.32
2023-08-22T16:45:29.612Z,32.26
2023-08-22T16:48:17.442Z,32.27
2023-08-22T16:51:05.270Z,32.03
2023-08-22T16:53:54.458Z,31.65
2023-08-22T16:56:42.064Z,31.81
2023-08-22T16:59:29.925Z,31.75
2023-08-22T17:02:17.787Z,31.69
2023-08-22T17:05:07.073Z,31.55
2023-08-22T17:07:55.035Z,31.64
2023-08-22T17:10:44.365Z,31.61
2023-08-22T17:13:32.165Z,31.49
2023-08-22T17:16:19.850Z,31.61
2023-08-22T17:19:07.618Z,31.66
2023-08-22T17:21:55.214Z,31.65
2023-08-22T17:24:43.160Z,31.57
2023-08-22T17:27:32.292Z,31.52
2023-08-22T17:30:20.861Z,31.73
2023-08-22T17:33:08.954Z,31.74
2023-08-22T17:35:56.614Z,31.57
2023-08-22T17:38:46.016Z,31.84
2023-08-22T17:41:33.934Z,31.73
2023-08-22T17:44:23.421Z,31.81
2023-08-22T17:47:11.487Z,31.83
2023-08-22T17:49:59.234Z,31.73
2023-08-22T17:52:46.908Z,31.80
2023-08-22T17:55:35.841Z,31.70
2023-08-22T17:58:24.575Z,31.65
2023-08-22T18:01:14.005Z,31.61
2023-08-22T18:04:02.626Z,31.66
2023-08-22T18:06:50.322Z,31.70
2023-08-22T18:09:38.002Z,31.54
2023-08-22T18:12:25.741Z,31.76
2023-08-22T18:15:13.471Z,31.68
2023-08-22T18:18:02.707Z,31.62
2023-08-22T18:20:50.560Z,31.58
2023-08-22T18:23:39.230Z,31.57
2023-08-22T18:26:26.882Z,31.56
2023-08-22T18:29:14.739Z,31.55
2023-08-22T18:32:02.581Z,31.35
2023-08-22T18:34:51.679Z,31.31
2023-08-22T18:37:39.963Z,31.30
2023-08-22T18:40:27.593Z,31.14
2023-08-22T18:43:15.421Z,31.36
2023-08-22T18:46:03.096Z,31.33
2023-08-22T18:48:51.229Z,31.48
2023-08-22T18:51:40.253Z,31.57
2023-08-22T18:54:27.966Z,31.46
2023-08-22T18:57:15.672Z,30.90
2023-08-22T19:00:03.345Z,30.97
2023-08-22T19:02:51.236Z,31.21
2023-08-22T19:05:38.924Z,30.84
2023-08-22T19:08:28.525Z,31.16
2023-08-22T19:11:16.355Z,31.27
2023-08-22T19:14:04.345Z,31.12
2023-08-22T19:16:52.301Z,30.58
2023-08-22T19:19:39.906Z,30.90
2023-08-22T19:22:28.003Z,30.61
2023-08-22T19:25:17.088Z,30.64
2023-08-22T19:28:05.416Z,30.32
2023-08-22T19:30:56.730Z,30.66
2023-08-22T19:33:45.773Z,30.36
2023-08-22T19:36:34.779Z,30.25
2023-08-22T19:39:22.527Z,29.96
2023-08-22T19:42:11.775Z,30.45
2023-08-22T19:45:00.107Z,30.44
2023-08-22T19:47:48.527Z,30.38
2023-08-22T19:50:36.407Z,29.74
2023-08-22T19:53:24.133Z,29.46
2023-08-22T19:56:11.852Z,29.63
2023-08-22T19:59:00.907Z,29.62
2023-08-22T20:01:48.777Z,29.70
2023-08-22T20:04:36.642Z,29.34
2023-08-22T20:07:24.640Z,29.48
2023-08-22T20:10:12.609Z,29.32
2023-08-22T20:13:00.747Z,29.07
2023-08-22T20:15:50.300Z,29.29
2023-08-22T20:18:38.065Z,29.11
2023-08-22T20:21:26.482Z,28.95
2023-08-22T20:24:15.888Z,28.98
2023-08-22T20:27:05.452Z,28.92
2023-08-22T20:29:53.176Z,28.52
2023-08-22T20:32:42.485Z,28.43
2023-08-22T20:35:30.284Z,28.44
2023-08-22T20:38:17.997Z,28.01
2023-08-22T20:41:05.769Z,28.09
2023-08-22T20:43:53.440Z,28.07
2023-08-22T20:46:41.280Z,28.09
2023-08-22T20:49:30.346Z,28.44
2023-08-22T20:52:18.276Z,28.37
2023-08-22T20:55:06.897Z,28.19
2023-08-22T20:57:54.697Z,28.04
2023-08-22T21:00:42.454Z,28.13
2023-08-22T21:03:30.323Z,28.05
2023-08-22T21:06:19.491Z,27.62
2023-08-22T21:09:07.163Z,27.90
2023-08-22T21:12:01.376Z,27.31
2023-08-22T21:14:48.845Z,27.94
2023-08-22T21:17:36.621Z,27.72
2023-08-22T21:20:24.318Z,27.26
2023-08-22T21:23:13.665Z,27.61
2023-08-22T21:26:02.248Z,27.66
2023-08-22T21:28:49.945Z,27.64
2023-08-22T21:31:38.039Z,27.50
2023-08-22T21:34:25.780Z,27.41
2023-08-22T21:37:13.450Z,27.31
2023-08-22T21:40:02.554Z,27.25
2023-08-22T21:42:50.232Z,26.70
2023-08-22T21:45:38.103Z,27.20
2023-08-22T21:48:25.825Z,27.23
2023-08-22T21:51:13.728Z,27.07
2023-08-22T21:54:01.333Z,27.21
2023-08-22T21:56:50.668Z,27.34
2023-08-22T21:59:38.392Z,26.95
2023-08-22T22:02:26.278Z,27.40
2023-08-22T22:05:14.054Z,27.28
2023-08-22T22:08:01.757Z,27.14
2023-08-22T22:10:53.306Z,27.16
2023-08-22T22:13:42.269Z,27.07
2023-08-22T22:16:42.964Z,26.94
2023-08-22T22:19:32.507Z,26.89
2023-08-22T22:22:20.294Z,26.89
2023-08-22T22:25:09.359Z,26.72
2023-08-22T22:27:57.226Z,26.88
2023-08-22T22:30:46.546Z,26.95
2023-08-22T22:33:34.224Z,27.08
2023-08-22T22:36:22.127Z,26.95
2023-08-22T22:39:10.681Z,26.90
2023-08-22T22:41:58.403Z,26.84
2023-08-22T22:44:46.893Z,26.84
2023-08-22T22:47:36.274Z,26.72
2023-08-22T22:50:24.081Z,26.67
2023-08-22T22:53:11.773Z,26.88
2023-08-22T22:55:59.748Z,26.93
2023-08-22T22:58:47.577Z,26.91
2023-08-22T23:01:35.322Z,26.75
2023-08-22T23:04:24.745Z,26.48
2023-08-22T23:07:12.935Z,26.42
2023-08-22T23:10:00.695Z,26.53
2023-08-22T23:12:49.411Z,26.52
2023-08-22T23:15:37.165Z,26.68
2023-08-22T23:18:25.047Z,26.82
2023-08-22T23:21:14.124Z,27.00
2023-08-22T23:24:02.109Z,26.20
2023-08-22T23:26:49.864Z,26.74
2023-08-22T23:29:37.781Z,26.52
2023-08-22T23:32:28.347Z,26.28
2023-08-22T23:35:16.118Z,26.31
2023-08-22T23:38:06.136Z,26.30
2023-08-22T23:40:53.889Z,26.35
2023-08-22T23:43:41.895Z,26.50
2023-08-22T23:46:29.616Z,26.54
2023-08-22T23:49:17.618Z,26.26
2023-08-22T23:52:05.873Z,26.35
2023-08-22T23:54:55.012Z,26.40
2023-08-22T23:57:42.881Z,26.50
